Larguia, Argentina
Current Conditions -  °F | °C
As of 1:00 AM on Saturday 20 Dec 2014 (Local Time) from SAAR Reporting Station
Clear Clear  
Wind Chill: 79°   Ceiling: Unl
Heat Index: 81°   Visibility: 6mi
Dew Point: 66°   Wind: 10mph
Humidity: 65%   Direction: 20°NNE
Pressure: 29.53"   Gusts: NA
Location:  32.54°S, 61.23°W
Report Text: SAAR 200400Z 02009KT CAVOK 26/19 Q1000
Loading
Personal Weather Stations






























Interactive Weather Map New forecast layout! Learn more

10-Day Weather Forecast

Advertisements
Track Severe Weather on mobile